createdAt,value
2019-01-14T00:01:19.366Z,6.60
2019-01-14T00:04:02.276Z,6.60
2019-01-14T00:06:47.015Z,6.60
2019-01-14T00:09:31.110Z,6.50
2019-01-14T00:12:15.528Z,6.60
2019-01-14T00:14:59.634Z,6.60
2019-01-14T00:17:43.584Z,6.60
2019-01-14T00:20:27.111Z,6.60
2019-01-14T00:23:09.244Z,6.60
2019-01-14T00:25:51.533Z,6.70
2019-01-14T00:28:35.770Z,6.70
2019-01-14T00:31:17.502Z,6.70
2019-01-14T00:33:59.950Z,6.70
2019-01-14T00:36:41.774Z,6.80
2019-01-14T00:42:05.053Z,6.80
2019-01-14T00:44:49.217Z,6.80
2019-01-14T00:47:33.197Z,6.90
2019-01-14T00:50:14.874Z,6.90
2019-01-14T00:52:57.996Z,7.00
2019-01-14T00:55:41.938Z,7.00
2019-01-14T00:58:26.354Z,7.00
2019-01-14T01:01:10.475Z,7.00
2019-01-14T01:03:52.498Z,7.10
2019-01-14T01:06:34.399Z,7.10
2019-01-14T01:09:17.343Z,7.10
2019-01-14T01:11:59.186Z,7.10
2019-01-14T01:14:41.158Z,7.10
2019-01-14T01:20:04.682Z,7.00
2019-01-14T01:22:46.608Z,7.00
2019-01-14T01:25:29.681Z,7.00
2019-01-14T01:28:13.669Z,7.00
2019-01-14T01:30:55.968Z,7.00
2019-01-14T01:33:38.083Z,6.90
2019-01-14T01:36:20.066Z,6.90
2019-01-14T01:39:05.795Z,6.80
2019-01-14T01:41:50.183Z,6.80
2019-01-14T01:44:34.345Z,6.80
2019-01-14T01:47:16.031Z,6.80
2019-01-14T01:49:59.596Z,6.70
2019-01-14T01:52:41.873Z,6.70
2019-01-14T01:55:25.771Z,6.70
2019-01-14T01:58:07.481Z,6.70
2019-01-14T02:00:49.397Z,6.60
2019-01-14T02:03:31.452Z,6.60
2019-01-14T02:06:13.569Z,6.60
2019-01-14T02:08:55.801Z,6.60
2019-01-14T02:11:38.159Z,6.60
2019-01-14T02:14:22.769Z,6.60
2019-01-14T02:17:04.711Z,6.50
2019-01-14T02:19:46.638Z,6.50
2019-01-14T02:22:28.798Z,6.40
2019-01-14T02:25:10.866Z,6.30
2019-01-14T02:27:53.095Z,6.30
2019-01-14T02:30:34.953Z,6.30
2019-01-14T02:33:17.018Z,6.30
2019-01-14T02:35:59.475Z,6.30
2019-01-14T02:38:43.480Z,6.30
2019-01-14T02:41:25.497Z,6.30
2019-01-14T02:44:07.908Z,6.30
2019-01-14T02:46:49.906Z,6.40
2019-01-14T02:49:31.852Z,6.40
2019-01-14T02:52:14.789Z,6.40
2019-01-14T02:54:59.002Z,6.30
2019-01-14T02:57:41.313Z,6.30
2019-01-14T03:00:23.019Z,6.20
2019-01-14T03:03:05.413Z,6.20
2019-01-14T03:05:47.497Z,6.20
2019-01-14T03:08:30.522Z,6.20
2019-01-14T03:11:14.595Z,6.20
2019-01-14T03:13:57.421Z,6.20
2019-01-14T03:16:39.317Z,6.10
2019-01-14T03:19:21.656Z,6.10
2019-01-14T03:22:03.154Z,6.10
2019-01-14T03:24:45.960Z,6.10
2019-01-14T03:27:30.038Z,6.10
2019-01-14T03:30:12.995Z,6.10
2019-01-14T03:32:57.011Z,6.10
2019-01-14T03:35:39.928Z,6.10
2019-01-14T03:38:22.002Z,6.10
2019-01-14T03:41:05.005Z,6.10
2019-01-14T03:43:48.987Z,6.10
2019-01-14T03:46:32.078Z,6.10
2019-01-14T03:49:14.023Z,6.10
2019-01-14T03:51:57.091Z,6.10
2019-01-14T03:54:41.148Z,6.10
2019-01-14T03:57:23.900Z,6.20
2019-01-14T04:00:07.706Z,6.20
2019-01-14T04:02:50.950Z,6.20
2019-01-14T04:05:32.437Z,6.30
2019-01-14T04:08:14.526Z,6.30
2019-01-14T04:10:58.504Z,6.30
2019-01-14T04:13:40.276Z,6.30
2019-01-14T04:16:25.915Z,6.30
2019-01-14T04:19:07.763Z,6.30
2019-01-14T04:21:49.769Z,6.40
2019-01-14T04:24:31.890Z,6.30
2019-01-14T04:27:14.036Z,6.30
2019-01-14T04:29:56.465Z,6.30
2019-01-14T04:35:26.741Z,6.30
2019-01-14T04:38:10.757Z,6.30
2019-01-14T04:40:54.778Z,6.30
2019-01-14T04:43:36.637Z,6.20
2019-01-14T04:46:19.212Z,6.30
2019-01-14T04:49:03.115Z,6.20
2019-01-14T04:51:46.009Z,6.20
2019-01-14T04:54:29.990Z,6.30
2019-01-14T04:57:11.893Z,6.30
2019-01-14T05:02:35.056Z,6.30
2019-01-14T05:05:19.523Z,6.30
2019-01-14T05:08:01.485Z,6.30
2019-01-14T05:10:45.368Z,6.40
2019-01-14T05:13:27.294Z,6.40
2019-01-14T05:16:11.295Z,6.40
2019-01-14T05:18:55.716Z,6.50
2019-01-14T05:21:37.584Z,6.50
2019-01-14T05:24:20.804Z,6.50
2019-01-14T05:27:03.176Z,6.50
2019-01-14T05:29:44.632Z,6.40
2019-01-14T05:35:09.214Z,6.50
2019-01-14T05:37:51.577Z,6.40
2019-01-14T05:40:33.789Z,6.40
2019-01-14T05:43:18.123Z,6.50
2019-01-14T05:46:00.163Z,6.50
2019-01-14T05:48:42.034Z,6.50
2019-01-14T05:51:25.113Z,6.60
2019-01-14T05:54:09.255Z,6.60
2019-01-14T05:56:51.156Z,6.60
2019-01-14T05:59:35.180Z,6.70
2019-01-14T06:02:19.547Z,6.70
2019-01-14T06:05:01.473Z,6.60
2019-01-14T06:07:45.041Z,6.60
2019-01-14T06:10:29.222Z,6.60
2019-01-14T06:13:12.046Z,6.60
2019-01-14T06:15:54.224Z,6.50
2019-01-14T06:18:36.326Z,6.50
2019-01-14T06:21:18.477Z,6.50
2019-01-14T06:24:00.482Z,6.50
2019-01-14T06:26:42.550Z,6.50
2019-01-14T06:29:24.652Z,6.50
2019-01-14T06:32:06.610Z,6.50
2019-01-14T06:34:48.692Z,6.50
2019-01-14T06:37:30.397Z,6.50
2019-01-14T06:40:13.306Z,6.40
2019-01-14T06:42:57.282Z,6.20
2019-01-14T06:45:40.257Z,6.10
2019-01-14T06:48:24.354Z,5.80
2019-01-14T06:51:07.070Z,5.70
2019-01-14T06:53:49.091Z,5.60
2019-01-14T06:56:31.306Z,5.60
2019-01-14T06:59:13.280Z,5.60
2019-01-14T07:01:56.373Z,5.60
2019-01-14T07:04:38.378Z,5.60
2019-01-14T07:07:20.277Z,5.70
2019-01-14T07:10:02.526Z,5.80
2019-01-14T07:12:44.638Z,5.80
2019-01-14T07:15:26.515Z,5.90
2019-01-14T07:18:08.819Z,6.00
2019-01-14T07:20:51.120Z,6.30
2019-01-14T07:23:34.419Z,6.50
2019-01-14T07:26:18.450Z,6.70
2019-01-14T07:29:01.277Z,6.80
2019-01-14T07:31:43.237Z,6.80
2019-01-14T07:34:25.367Z,6.90
2019-01-14T07:37:09.251Z,7.00
2019-01-14T07:39:51.059Z,7.10
2019-01-14T07:42:32.643Z,7.10
2019-01-14T07:45:15.720Z,7.00
2019-01-14T07:47:59.653Z,7.00
2019-01-14T07:50:41.973Z,6.80
2019-01-14T07:53:25.984Z,6.80
2019-01-14T07:56:10.550Z,7.40
2019-01-14T07:58:53.216Z,8.00
2019-01-14T08:01:35.385Z,8.20
2019-01-14T08:04:17.557Z,8.00
2019-01-14T08:06:59.937Z,7.80
2019-01-14T08:09:42.003Z,7.70
2019-01-14T08:12:24.235Z,7.60
2019-01-14T08:15:06.207Z,8.10
2019-01-14T08:17:48.728Z,9.10
2019-01-14T08:20:33.007Z,11.20
2019-01-14T08:23:17.008Z,15.40
2019-01-14T08:25:59.235Z,15.70
2019-01-14T08:28:41.995Z,17.50
2019-01-14T08:31:26.186Z,19.20
2019-01-14T08:34:09.102Z,20.20
2019-01-14T08:37:00.692Z,20.20
2019-01-14T08:39:40.747Z,20.10
2019-01-14T08:42:23.099Z,20.10
2019-01-14T08:45:05.660Z,21.20
2019-01-14T08:47:47.574Z,22.60
2019-01-14T08:50:30.498Z,23.20
2019-01-14T08:53:13.452Z,23.90
2019-01-14T08:55:55.415Z,24.90
2019-01-14T08:58:37.599Z,25.60
2019-01-14T09:01:19.599Z,25.10
2019-01-14T09:04:01.817Z,25.20
2019-01-14T09:06:44.005Z,26.00
2019-01-14T09:09:28.153Z,26.90
2019-01-14T09:12:12.334Z,27.70
2019-01-14T09:14:56.312Z,28.50
2019-01-14T09:17:40.329Z,29.00
2019-01-14T09:20:24.377Z,26.90
2019-01-14T09:23:08.412Z,24.40
2019-01-14T09:25:53.995Z,24.00
2019-01-14T09:28:36.383Z,23.30
2019-01-14T09:31:19.664Z,23.60
2019-01-14T09:34:02.568Z,24.90
2019-01-14T09:36:46.593Z,24.80
2019-01-14T09:39:29.435Z,24.40
2019-01-14T09:42:11.499Z,25.10
2019-01-14T09:44:54.369Z,26.40
2019-01-14T09:47:36.514Z,27.50
2019-01-14T09:50:18.499Z,28.90
2019-01-14T09:53:00.787Z,30.80
2019-01-14T09:55:43.385Z,31.80
2019-01-14T10:01:08.419Z,30.50
2019-01-14T10:03:52.416Z,31.50
2019-01-14T10:06:34.933Z,33.20
2019-01-14T10:09:17.045Z,33.70
2019-01-14T10:11:58.849Z,33.50
2019-01-14T10:14:42.798Z,31.10
2019-01-14T10:17:28.353Z,29.40
2019-01-14T10:20:10.864Z,27.80
2019-01-14T10:22:53.759Z,23.40
2019-01-14T10:25:35.462Z,19.90
2019-01-14T10:28:17.434Z,15.20
2019-01-14T10:30:59.343Z,14.90
2019-01-14T10:33:41.451Z,13.30
2019-01-14T10:36:25.317Z,12.30
2019-01-14T10:39:08.441Z,11.50
2019-01-14T10:44:32.849Z,10.70
2019-01-14T10:47:15.001Z,10.30
2019-01-14T10:49:57.238Z,10.00
2019-01-14T10:52:41.582Z,10.00
2019-01-14T10:55:25.774Z,12.60
2019-01-14T10:58:08.153Z,12.60
2019-01-14T11:00:50.330Z,12.00
2019-01-14T11:06:13.785Z,20.30
2019-01-14T11:09:05.710Z,25.10
2019-01-14T11:11:42.062Z,22.80
2019-01-14T11:17:08.138Z,20.70
2019-01-14T11:19:52.059Z,21.10
2019-01-14T11:22:36.124Z,22.20
2019-01-14T11:25:20.353Z,24.20
2019-01-14T11:28:04.274Z,26.30
2019-01-14T11:30:48.349Z,26.60
2019-01-14T11:33:32.674Z,26.10
2019-01-14T11:42:33.458Z,21.60
2019-01-14T11:47:56.840Z,16.90
2019-01-14T11:50:40.844Z,16.40
2019-01-14T11:53:24.806Z,16.80
2019-01-14T11:56:06.730Z,16.90
2019-01-14T11:58:49.614Z,15.80
2019-01-14T12:01:31.826Z,15.00
2019-01-14T12:04:13.966Z,14.70
2019-01-14T12:06:58.269Z,15.50
2019-01-14T12:09:42.128Z,16.40
2019-01-14T12:12:27.998Z,16.10
2019-01-14T12:15:10.034Z,15.70
2019-01-14T12:17:51.924Z,16.00
2019-01-14T12:20:35.627Z,16.60
2019-01-14T12:23:19.712Z,17.60
2019-01-14T12:26:01.579Z,20.30
2019-01-14T12:28:45.566Z,23.00
2019-01-14T12:31:29.733Z,24.90
2019-01-14T12:34:13.646Z,25.60
2019-01-14T12:36:55.701Z,25.40
2019-01-14T12:39:39.968Z,24.70
2019-01-14T12:42:24.054Z,23.60
2019-01-14T12:45:08.318Z,23.00
2019-01-14T12:47:50.280Z,22.10
2019-01-14T12:50:32.056Z,20.50
2019-01-14T12:53:14.640Z,18.20
2019-01-14T12:55:56.439Z,16.40
2019-01-14T12:58:38.733Z,15.20
2019-01-14T13:01:21.043Z,14.30
2019-01-14T13:04:03.556Z,13.60
2019-01-14T13:06:45.412Z,13.20
2019-01-14T13:09:28.293Z,13.20
2019-01-14T13:12:10.412Z,13.10
2019-01-14T13:14:53.325Z,12.40
2019-01-14T13:17:37.328Z,11.70
2019-01-14T13:20:19.621Z,11.00
2019-01-14T13:25:43.012Z,9.90
2019-01-14T13:28:27.040Z,9.60
2019-01-14T13:31:09.045Z,9.30
2019-01-14T13:33:52.825Z,9.10
2019-01-14T13:36:36.689Z,9.00
2019-01-14T13:39:18.650Z,8.90
2019-01-14T13:42:01.078Z,8.80
2019-01-14T13:44:45.409Z,8.80
2019-01-14T13:47:29.275Z,8.60
2019-01-14T13:50:13.332Z,8.50
2019-01-14T13:52:58.242Z,8.40
2019-01-14T13:55:42.357Z,8.40
2019-01-14T13:58:24.592Z,8.30
2019-01-14T14:01:08.555Z,8.20
2019-01-14T14:03:50.449Z,8.20
2019-01-14T14:06:34.389Z,8.10
2019-01-14T14:09:18.761Z,8.00
2019-01-14T14:12:00.997Z,7.90
2019-01-14T14:14:43.158Z,7.80
2019-01-14T14:17:25.018Z,7.70
2019-01-14T14:20:07.821Z,7.50
2019-01-14T14:22:49.778Z,7.50
2019-01-14T14:25:32.789Z,7.30
2019-01-14T14:28:16.939Z,7.20
2019-01-14T14:30:59.935Z,7.20
2019-01-14T14:33:44.120Z,7.20
2019-01-14T14:36:26.276Z,7.10
2019-01-14T14:39:08.083Z,7.10
2019-01-14T14:41:52.152Z,7.00
2019-01-14T14:44:36.176Z,6.90
2019-01-14T14:47:20.401Z,6.90
2019-01-14T14:50:04.409Z,6.80
2019-01-14T14:52:48.617Z,6.80
2019-01-14T14:55:32.848Z,6.70
2019-01-14T14:58:14.994Z,6.60
2019-01-14T15:00:57.063Z,6.60
2019-01-14T15:03:39.427Z,6.50
2019-01-14T15:06:23.619Z,6.40
2019-01-14T15:09:08.426Z,6.30
2019-01-14T15:11:50.224Z,6.20
2019-01-14T15:14:32.290Z,6.20
2019-01-14T15:17:14.240Z,6.00
2019-01-14T15:19:56.217Z,5.90
2019-01-14T15:22:38.413Z,5.90
2019-01-14T15:25:20.564Z,5.90
2019-01-14T15:28:02.202Z,5.80
2019-01-14T15:30:45.024Z,5.70
2019-01-14T15:33:29.210Z,5.60
2019-01-14T15:36:10.878Z,5.60
2019-01-14T15:38:52.690Z,5.50
2019-01-14T15:41:34.828Z,5.50
2019-01-14T15:44:16.958Z,5.40
2019-01-14T15:46:58.853Z,5.30
2019-01-14T15:49:41.067Z,5.20
2019-01-14T15:52:22.925Z,5.10
2019-01-14T15:55:05.234Z,4.90
2019-01-14T15:57:47.348Z,4.80
2019-01-14T16:00:28.973Z,4.80
2019-01-14T16:03:11.060Z,4.70
2019-01-14T16:08:36.518Z,4.50
2019-01-14T16:11:18.649Z,4.40
2019-01-14T16:14:00.632Z,4.40
2019-01-14T16:16:42.893Z,4.40
2019-01-14T16:19:25.679Z,4.30
2019-01-14T16:22:07.582Z,4.30
2019-01-14T16:24:49.846Z,4.30
2019-01-14T16:27:31.791Z,4.40
2019-01-14T16:30:13.617Z,4.30
2019-01-14T16:32:57.012Z,4.30
2019-01-14T16:35:38.959Z,4.30
2019-01-14T16:38:21.306Z,4.30
2019-01-14T16:41:03.152Z,4.30
2019-01-14T16:43:44.907Z,4.20
2019-01-14T16:46:27.760Z,4.20
2019-01-14T16:49:12.180Z,4.20
2019-01-14T16:51:54.514Z,4.10
2019-01-14T16:54:36.690Z,4.10
2019-01-14T16:57:19.817Z,4.10
2019-01-14T17:00:04.139Z,4.10
2019-01-14T17:02:45.924Z,4.10
2019-01-14T17:05:31.006Z,4.10
2019-01-14T17:08:15.180Z,4.10
2019-01-14T17:10:59.537Z,4.00
2019-01-14T17:13:41.149Z,4.00
2019-01-14T17:16:25.173Z,3.90
2019-01-14T17:19:07.625Z,3.80
2019-01-14T17:21:49.706Z,3.80
2019-01-14T17:24:31.941Z,3.80
2019-01-14T17:27:14.009Z,3.90
2019-01-14T17:29:55.966Z,3.90
2019-01-14T17:32:37.988Z,3.90
2019-01-14T17:35:20.138Z,3.90
2019-01-14T17:38:02.120Z,4.00
2019-01-14T17:40:44.065Z,4.10
2019-01-14T17:46:09.494Z,4.10
2019-01-14T17:48:51.595Z,4.10
2019-01-14T17:51:33.994Z,4.10
2019-01-14T17:54:18.027Z,4.10
2019-01-14T17:57:02.470Z,4.20
2019-01-14T17:59:44.700Z,4.40
2019-01-14T18:02:27.040Z,4.40
2019-01-14T18:05:09.259Z,4.40
2019-01-14T18:07:52.308Z,4.40
2019-01-14T18:10:40.117Z,4.50
2019-01-14T18:13:20.251Z,4.50
2019-01-14T18:16:02.418Z,4.50
2019-01-14T18:18:44.454Z,4.50
2019-01-14T18:21:26.203Z,4.40
2019-01-14T18:24:09.068Z,4.30
2019-01-14T18:26:50.758Z,4.10
2019-01-14T18:29:32.945Z,4.00
2019-01-14T18:32:15.654Z,3.80
2019-01-14T18:34:57.250Z,3.70
2019-01-14T18:37:39.291Z,3.50
2019-01-14T18:40:21.879Z,3.40
2019-01-14T18:43:03.933Z,3.30
2019-01-14T18:45:46.146Z,3.20
2019-01-14T18:48:28.158Z,3.00
2019-01-14T18:51:10.260Z,2.90
2019-01-14T18:53:52.276Z,2.90
2019-01-14T18:56:34.076Z,2.90
2019-01-14T18:59:17.661Z,2.90
2019-01-14T19:01:59.475Z,2.80
2019-01-14T19:04:41.601Z,2.80
2019-01-14T19:07:23.791Z,2.80
2019-01-14T19:10:06.378Z,2.80
2019-01-14T19:12:49.529Z,2.80
2019-01-14T19:15:21.158Z,2.80
2019-01-14T19:18:10.689Z,2.70
2019-01-14T19:20:53.012Z,2.70
2019-01-14T19:23:37.096Z,2.70
2019-01-14T19:26:18.910Z,2.80
2019-01-14T19:29:02.579Z,2.70
2019-01-14T19:31:46.802Z,2.70
2019-01-14T19:34:28.381Z,2.70
2019-01-14T19:37:10.647Z,2.70
2019-01-14T19:39:52.778Z,2.60
2019-01-14T19:42:34.624Z,2.60
2019-01-14T19:45:16.724Z,2.50
2019-01-14T19:47:58.773Z,2.50
2019-01-14T19:50:41.834Z,2.40
2019-01-14T19:53:24.180Z,2.40
2019-01-14T19:56:06.068Z,2.40
2019-01-14T19:58:48.336Z,2.40
2019-01-14T20:01:29.930Z,2.30
2019-01-14T20:04:11.829Z,2.30
2019-01-14T20:06:55.997Z,2.30
2019-01-14T20:09:40.107Z,2.20
2019-01-14T20:12:22.176Z,2.20
2019-01-14T20:15:04.419Z,2.20
2019-01-14T20:20:27.217Z,2.10
2019-01-14T20:23:08.976Z,2.10
2019-01-14T20:25:51.437Z,2.10
2019-01-14T20:28:35.920Z,2.10
2019-01-14T20:31:06.572Z,2.20
2019-01-14T20:33:48.696Z,2.20
2019-01-14T20:36:31.851Z,2.20
2019-01-14T20:39:13.834Z,2.10
2019-01-14T20:41:55.815Z,2.10
2019-01-14T20:44:40.089Z,2.10
2019-01-14T20:47:24.008Z,2.10
2019-01-14T20:50:08.059Z,2.10
2019-01-14T20:52:49.772Z,2.00
2019-01-14T20:55:31.767Z,2.00
2019-01-14T20:58:14.166Z,1.90
2019-01-14T21:00:58.698Z,1.90
2019-01-14T21:03:40.818Z,1.80
2019-01-14T21:06:22.636Z,1.70
2019-01-14T21:09:05.567Z,1.70
2019-01-14T21:11:49.333Z,1.60
2019-01-14T21:14:31.274Z,1.50
2019-01-14T21:17:13.362Z,1.50
2019-01-14T21:19:55.649Z,1.40
2019-01-14T21:22:39.652Z,1.40
2019-01-14T21:25:21.610Z,1.40
2019-01-14T21:28:03.609Z,1.30
2019-01-14T21:30:45.368Z,1.30
2019-01-14T21:33:27.209Z,1.30
2019-01-14T21:36:09.897Z,1.20
2019-01-14T21:38:51.911Z,1.20
2019-01-14T21:41:34.442Z,1.20
2019-01-14T21:44:16.501Z,1.20
2019-01-14T21:46:59.387Z,1.10
2019-01-14T21:49:41.423Z,1.10
2019-01-14T21:52:23.168Z,1.10
2019-01-14T21:55:05.107Z,1.00
2019-01-14T21:57:48.985Z,1.00
2019-01-14T22:00:30.772Z,1.00
2019-01-14T22:03:13.425Z,0.90
2019-01-14T22:05:55.490Z,0.90
2019-01-14T22:08:37.159Z,0.90
2019-01-14T22:11:21.109Z,0.80
2019-01-14T22:14:04.974Z,0.80
2019-01-14T22:16:46.821Z,0.80
2019-01-14T22:19:28.766Z,0.80
2019-01-14T22:22:10.383Z,0.70
2019-01-14T22:24:53.226Z,0.80
2019-01-14T22:27:35.130Z,0.70
2019-01-14T22:30:17.243Z,0.70
2019-01-14T22:32:59.381Z,0.70
2019-01-14T22:35:41.493Z,0.70
2019-01-14T22:38:23.539Z,0.70
2019-01-14T22:41:05.753Z,0.70
2019-01-14T22:43:49.681Z,0.70
2019-01-14T22:46:31.817Z,0.70
2019-01-14T22:49:13.889Z,0.70
2019-01-14T22:51:55.916Z,0.70
2019-01-14T22:54:37.940Z,0.70
2019-01-14T22:57:20.265Z,0.60
2019-01-14T23:00:07.379Z,0.70
2019-01-14T23:02:51.771Z,0.70
2019-01-14T23:05:33.893Z,0.70
2019-01-14T23:08:16.020Z,0.60
2019-01-14T23:10:59.101Z,0.60
2019-01-14T23:13:41.314Z,0.60
2019-01-14T23:16:23.206Z,0.60
2019-01-14T23:19:05.033Z,0.60
2019-01-14T23:21:47.004Z,0.60
2019-01-14T23:24:29.914Z,0.60
2019-01-14T23:27:13.837Z,0.50
2019-01-14T23:29:56.781Z,0.60
2019-01-14T23:32:38.853Z,0.60
2019-01-14T23:35:21.630Z,0.60
2019-01-14T23:38:03.410Z,0.60
2019-01-14T23:40:45.341Z,0.60
2019-01-14T23:43:27.463Z,0.60
2019-01-14T23:46:09.593Z,0.60
2019-01-14T23:48:51.430Z,0.60
2019-01-14T23:51:33.202Z,0.60
2019-01-14T23:54:15.286Z,0.60
2019-01-14T23:56:58.496Z,0.60
2019-01-14T23:59:40.692Z,0.60
